Time;durP1;ratioP1;P1;durP2;ratioP2;P2;SDS_P1;SDS_P2;PMS_P1;PMS_P2;Temp;Humidity;BMP_temperature;BMP_pressure;BME280_temperature;BME280_humidity;BME280_pressure;Samples;Min_cycle;Max_cycle;Signal;HPM_P1;HPM_P2
2022/08/18 00:01:15;;;;;;;33.85;8.00;;;29.00;86.00;;;;;;5052495;28;20025;-74
2022/08/18 00:03:41;;;;;;;30.58;7.53;;;29.00;85.30;;;;;;5052287;28;20108;-74
2022/08/18 00:06:07;;;;;;;25.90;7.13;;;28.90;85.50;;;;;;5052119;28;20080;-73
2022/08/18 00:08:33;;;;;;;31.38;7.68;;;28.90;85.80;;;;;;5052227;28;20111;-75
2022/08/18 00:10:59;;;;;;;27.60;7.50;;;28.90;85.90;;;;;;5052350;28;20129;-75
2022/08/18 00:13:26;;;;;;;27.60;6.50;;;28.90;86.00;;;;;;5052240;28;20377;-75
2022/08/18 00:15:51;;;;;;;27.38;7.35;;;28.90;85.70;;;;;;5052419;28;20382;-75
2022/08/18 00:18:18;;;;;;;27.05;7.30;;;28.90;85.80;;;;;;5052386;28;20025;-75
2022/08/18 00:20:44;;;;;;;35.45;7.78;;;29.00;85.70;;;;;;5052179;28;20104;-76
2022/08/18 00:23:10;;;;;;;28.15;7.25;;;28.90;85.50;;;;;;5053442;28;20036;-76
2022/08/18 00:25:36;;;;;;;28.33;7.57;;;28.90;85.70;;;;;;5056337;28;20033;-76
2022/08/18 00:28:02;;;;;;;31.58;7.45;;;28.90;85.80;;;;;;5056120;28;20497;-76
2022/08/18 00:30:28;;;;;;;32.25;7.00;;;28.90;85.70;;;;;;5056017;28;20021;-74
2022/08/18 00:32:56;;;;;;;25.77;7.15;;;28.90;85.60;;;;;;5056381;28;20021;-75
2022/08/18 00:35:37;;;;;;;29.92;7.72;;;28.80;85.50;;;;;;5055865;28;20417;-74
2022/08/18 00:38:05;;;;;;;25.17;7.65;;;28.80;85.60;;;;;;5056235;28;20025;-75
2022/08/18 00:40:38;;;;;;;25.27;6.78;;;28.80;85.30;;;;;;5055878;28;20053;-75
2022/08/18 00:43:07;;;;;;;33.00;7.47;;;28.80;85.30;;;;;;5056143;28;20100;-74
2022/08/18 00:45:38;;;;;;;27.50;7.05;;;28.90;85.40;;;;;;5055797;28;20025;-74
2022/08/18 00:48:06;;;;;;;31.58;7.95;;;28.80;85.50;;;;;;5055907;28;20071;-75
2022/08/18 00:50:37;;;;;;;30.58;7.45;;;28.80;85.30;;;;;;5056016;28;20033;-75
2022/08/18 00:53:17;;;;;;;27.63;6.78;;;28.80;85.30;;;;;;5055944;28;20127;-75
2022/08/18 00:55:47;;;;;;;21.45;6.43;;;28.80;85.40;;;;;;5054204;28;20028;-75
2022/08/18 00:58:21;;;;;;;36.65;7.63;;;28.70;85.40;;;;;;5055632;28;20332;-74
2022/08/18 01:00:49;;;;;;;31.67;7.07;;;28.70;86.70;;;;;;5055410;28;20029;-75
2022/08/18 01:03:18;;;;;;;33.80;8.20;;;28.70;85.70;;;;;;5054094;28;20052;-76
2022/08/18 01:05:55;;;;;;;27.23;6.80;;;28.70;85.90;;;;;;5055434;28;20037;-76
2022/08/18 01:08:22;;;;;;;28.48;7.28;;;28.70;86.10;;;;;;5055482;28;20021;-75
2022/08/18 01:10:48;;;;;;;22.25;6.68;;;28.60;85.90;;;;;;5055326;28;20021;-73
2022/08/18 01:13:14;;;;;;;30.42;6.90;;;28.70;85.90;;;;;;5055722;28;20025;-75
2022/08/18 01:15:40;;;;;;;30.55;6.63;;;28.60;86.30;;;;;;5055216;28;20028;-74
2022/08/18 01:24:09;;;;;;;23.45;6.47;;;28.50;87.50;;;;;;5055394;28;20040;-74
2022/08/18 01:26:37;;;;;;;29.40;7.50;;;28.50;86.50;;;;;;5055106;28;20045;-76
2022/08/18 01:29:10;;;;;;;27.00;7.63;;;28.50;86.60;;;;;;5055122;28;20090;-74
2022/08/18 01:31:42;;;;;;;25.15;7.30;;;28.50;86.70;;;;;;5055473;28;20044;-75
2022/08/18 01:34:09;;;;;;;32.58;7.70;;;28.50;87.70;;;;;;5054788;28;20108;-74
2022/08/18 01:36:40;;;;;;;28.52;7.13;;;28.50;86.50;;;;;;5055197;28;20029;-74
2022/08/18 01:39:09;;;;;;;30.70;7.97;;;28.50;86.20;;;;;;5055190;28;20083;-76
2022/08/18 01:41:34;;;;;;;32.67;8.02;;;28.50;86.20;;;;;;5055173;28;20029;-75
2022/08/18 01:44:01;;;;;;;30.27;7.07;;;28.50;85.70;;;;;;5055213;28;20017;-74
2022/08/18 01:46:31;;;;;;;31.35;7.00;;;28.50;85.40;;;;;;5054647;28;20040;-76
2022/08/18 01:49:00;;;;;;;29.73;6.97;;;28.50;85.60;;;;;;5055046;28;20033;-76
2022/08/18 01:51:28;;;;;;;26.63;7.97;;;28.40;86.20;;;;;;5054909;28;20032;-75
2022/08/18 01:53:55;;;;;;;27.80;7.03;;;28.30;86.50;;;;;;5054911;28;20025;-76
2022/08/18 01:56:21;;;;;;;30.90;7.25;;;28.20;86.30;;;;;;5054557;28;20406;-76
2022/08/18 01:58:47;;;;;;;26.50;7.45;;;28.20;86.30;;;;;;5053404;28;20033;-76
2022/08/18 02:01:14;;;;;;;24.17;7.10;;;28.20;86.40;;;;;;5054771;28;20025;-75
2022/08/18 02:03:45;;;;;;;24.85;7.38;;;28.20;86.40;;;;;;5053382;28;20052;-76
2022/08/18 02:06:15;;;;;;;22.27;6.70;;;28.20;86.20;;;;;;5054649;28;20045;-74
2022/08/18 02:08:41;;;;;;;29.38;6.97;;;28.10;86.30;;;;;;5055496;28;20051;-75
2022/08/18 02:11:07;;;;;;;31.30;8.05;;;28.10;86.60;;;;;;5054602;28;20470;-74
2022/08/18 02:13:33;;;;;;;28.45;6.82;;;28.10;86.60;;;;;;5054676;28;20027;-75
2022/08/18 02:16:00;;;;;;;26.02;6.85;;;28.10;86.40;;;;;;5054565;28;20029;-74
2022/08/18 02:18:28;;;;;;;21.15;6.13;;;28.00;86.50;;;;;;5054875;28;20025;-76
2022/08/18 02:20:56;;;;;;;27.98;6.47;;;28.10;86.20;;;;;;5053374;28;20075;-74
2022/08/18 02:23:23;;;;;;;24.45;6.53;;;28.10;85.90;;;;;;5054891;28;20060;-76
2022/08/18 02:25:49;;;;;;;31.52;6.95;;;28.20;85.60;;;;;;5054506;28;20033;-75
2022/08/18 02:28:15;;;;;;;24.92;7.85;;;28.20;85.40;;;;;;5054243;28;20028;-76
2022/08/18 02:30:41;;;;;;;27.25;7.15;;;28.10;85.30;;;;;;5054478;28;20044;-75
2022/08/18 02:33:09;;;;;;;31.60;7.55;;;28.10;85.10;;;;;;5054627;28;20025;-76
2022/08/18 02:35:36;;;;;;;22.10;6.32;;;28.10;84.80;;;;;;5054682;28;20028;-75
2022/08/18 02:38:05;;;;;;;26.38;7.45;;;28.20;84.70;;;;;;5054772;28;20033;-74
2022/08/18 02:40:32;;;;;;;24.08;6.75;;;28.20;84.50;;;;;;5054501;28;20037;-75
2022/08/18 02:42:59;;;;;;;28.95;7.00;;;28.20;84.20;;;;;;5054692;28;20029;-75
2022/08/18 02:45:24;;;;;;;25.33;7.22;;;28.20;83.90;;;;;;5054243;28;20378;-73
2022/08/18 02:47:54;;;;;;;21.88;6.90;;;28.20;83.90;;;;;;5054675;28;20478;-75
2022/08/18 02:50:21;;;;;;;28.17;7.22;;;28.20;83.70;;;;;;5054645;28;20021;-75
2022/08/18 02:52:47;;;;;;;26.20;7.05;;;28.20;83.50;;;;;;5054424;28;20025;-75
2022/08/18 02:55:13;;;;;;;27.05;6.45;;;28.20;83.40;;;;;;5054372;28;20029;-75
2022/08/18 02:57:45;;;;;;;27.27;7.20;;;28.20;83.50;;;;;;5054083;28;20566;-75
2022/08/18 03:00:14;;;;;;;30.90;7.90;;;28.20;83.30;;;;;;5054380;28;20441;-75
2022/08/18 03:02:44;;;;;;;21.52;6.18;;;28.20;83.00;;;;;;5054223;28;20131;-76
2022/08/18 03:05:10;;;;;;;28.85;7.22;;;28.20;82.80;;;;;;5054076;28;20041;-74
2022/08/18 03:07:35;;;;;;;27.90;6.85;;;28.30;83.00;;;;;;5054159;28;20018;-75
2022/08/18 03:10:01;;;;;;;23.05;7.07;;;28.20;82.70;;;;;;5052605;28;20558;-76
2022/08/18 03:12:27;;;;;;;27.50;6.97;;;28.20;82.60;;;;;;5054059;28;20052;-73
2022/08/18 03:14:52;;;;;;;26.48;7.70;;;28.20;82.30;;;;;;5054024;28;20075;-75
2022/08/18 03:17:18;;;;;;;27.48;7.47;;;28.20;82.20;;;;;;5053912;28;20078;-75
2022/08/18 03:19:44;;;;;;;22.08;7.03;;;28.10;82.10;;;;;;5058293;28;20044;-75
2022/08/18 03:22:10;;;;;;;25.92;6.40;;;28.10;81.90;;;;;;5075433;28;20025;-76
2022/08/18 03:24:36;;;;;;;26.10;6.88;;;28.20;82.00;;;;;;5058290;28;20141;-75
2022/08/18 03:27:06;;;;;;;20.20;6.65;;;28.20;81.70;;;;;;5053230;28;20179;-75
2022/08/18 03:29:34;;;;;;;22.05;6.70;;;28.20;81.30;;;;;;5053917;28;20033;-76
2022/08/18 03:32:02;;;;;;;23.15;7.18;;;28.10;81.40;;;;;;5053922;28;20600;-75
2022/08/18 03:34:28;;;;;;;30.05;7.30;;;28.10;81.30;;;;;;5052677;28;20024;-75
2022/08/18 03:36:54;;;;;;;25.10;6.45;;;28.10;81.10;;;;;;5051316;28;20029;-75
2022/08/18 03:39:22;;;;;;;21.20;6.82;;;28.10;81.00;;;;;;5052741;28;20024;-75
2022/08/18 03:41:53;;;;;;;27.88;6.63;;;28.10;80.50;;;;;;5052781;28;20489;-75
2022/08/18 03:44:19;;;;;;;24.00;7.00;;;28.20;80.00;;;;;;5052412;28;20433;-75
2022/08/18 03:46:46;;;;;;;21.00;6.40;;;28.20;79.50;;;;;;5052438;28;20025;-76
2022/08/18 03:49:12;;;;;;;24.63;6.35;;;28.20;79.20;;;;;;5052512;28;20112;-75
2022/08/18 03:51:42;;;;;;;25.58;6.57;;;28.20;79.10;;;;;;5052558;28;20090;-75
2022/08/18 03:54:09;;;;;;;20.67;5.93;;;28.20;78.50;;;;;;5052357;28;20025;-75
2022/08/18 03:56:37;;;;;;;23.67;6.47;;;28.30;78.50;;;;;;5052557;28;20067;-75
2022/08/18 03:59:20;;;;;;;21.95;6.63;;;28.30;78.00;;;;;;5051823;28;20025;-75
2022/08/18 04:01:47;;;;;;;27.13;6.18;;;28.30;76.50;;;;;;5052387;28;20029;-74
2022/08/18 04:04:17;;;;;;;21.40;6.57;;;28.30;77.30;;;;;;5052353;28;20024;-74
2022/08/18 04:06:50;;;;;;;24.58;6.78;;;28.20;76.90;;;;;;5052037;28;20536;-75
2022/08/18 04:09:17;;;;;;;21.60;6.95;;;28.30;76.60;;;;;;5052166;28;20036;-74
2022/08/18 04:11:43;;;;;;;26.38;6.90;;;28.30;76.40;;;;;;5052288;28;20390;-73
2022/08/18 04:14:14;;;;;;;20.42;6.25;;;28.30;76.00;;;;;;5052173;28;20035;-75
2022/08/18 04:16:41;;;;;;;18.13;5.65;;;28.30;75.60;;;;;;5052192;28;20071;-75
2022/08/18 04:19:08;;;;;;;17.52;5.43;;;28.20;75.00;;;;;;5052144;28;20029;-75
2022/08/18 04:21:38;;;;;;;23.90;6.05;;;28.20;74.80;;;;;;5052271;28;20383;-76
2022/08/18 04:24:06;;;;;;;25.38;6.05;;;28.20;74.80;;;;;;5052198;28;20323;-75
2022/08/18 04:26:38;;;;;;;20.75;6.57;;;28.20;74.60;;;;;;5052348;28;20138;-76
2022/08/18 04:29:06;;;;;;;24.42;6.43;;;28.20;74.10;;;;;;5052222;28;20429;-75
2022/08/18 04:31:32;;;;;;;25.90;6.90;;;28.20;74.70;;;;;;5052084;28;20092;-74
2022/08/18 04:33:59;;;;;;;19.98;5.55;;;28.10;74.40;;;;;;5052185;28;20104;-76
2022/08/18 04:36:25;;;;;;;25.00;6.20;;;28.20;74.20;;;;;;5050578;28;20453;-74
2022/08/18 04:38:51;;;;;;;28.42;6.45;;;28.20;73.90;;;;;;5051986;28;20419;-74
2022/08/18 04:41:18;;;;;;;27.42;6.72;;;28.20;73.50;;;;;;5051712;28;20036;-75
2022/08/18 04:43:43;;;;;;;25.13;6.90;;;28.20;73.00;;;;;;5052501;28;20449;-75
2022/08/18 04:46:10;;;;;;;26.83;6.43;;;28.30;72.60;;;;;;5051702;28;20167;-75
2022/08/18 04:48:40;;;;;;;22.58;5.78;;;28.30;72.70;;;;;;5052039;28;20049;-77
2022/08/18 04:51:17;;;;;;;22.23;6.05;;;28.40;72.40;;;;;;5051749;28;20028;-75
2022/08/18 04:53:44;;;;;;;25.05;6.00;;;28.50;72.20;;;;;;5052148;28;20029;-76
2022/08/18 04:56:35;;;;;;;21.85;6.13;;;28.50;72.60;;;;;;5051664;28;20482;-76
2022/08/18 04:59:09;;;;;;;24.50;7.15;;;28.50;72.70;;;;;;5044747;28;20037;-76
2022/08/18 05:01:38;;;;;;;28.73;6.85;;;28.50;72.90;;;;;;5050718;28;20076;-78
2022/08/18 05:04:04;;;;;;;26.58;6.60;;;28.50;72.80;;;;;;5052013;28;20025;-76
2022/08/18 05:06:31;;;;;;;23.23;6.45;;;28.50;72.70;;;;;;5051634;28;20033;-75
2022/08/18 05:09:02;;;;;;;24.27;6.43;;;28.60;72.50;;;;;;5051841;28;20029;-76
2022/08/18 05:11:33;;;;;;;26.23;7.32;;;28.60;71.80;;;;;;5055197;28;20033;-75
2022/08/18 05:14:00;;;;;;;20.75;5.68;;;28.60;71.20;;;;;;5055529;28;20025;-77
2022/08/18 05:16:27;;;;;;;19.20;5.53;;;28.70;70.10;;;;;;5055317;28;20487;-75
2022/08/18 05:18:53;;;;;;;23.10;5.65;;;28.70;69.60;;;;;;5055240;28;20527;-75
2022/08/18 05:21:21;;;;;;;26.52;6.63;;;28.70;69.00;;;;;;5055070;28;20043;-74
2022/08/18 05:23:48;;;;;;;24.52;6.75;;;28.80;68.50;;;;;;5055220;28;20028;-74
2022/08/18 05:26:16;;;;;;;20.05;6.03;;;28.80;68.10;;;;;;5055071;28;20415;-75
2022/08/18 05:28:43;;;;;;;24.77;5.70;;;28.80;67.40;;;;;;5054945;28;20123;-73
2022/08/18 05:31:16;;;;;;;28.17;5.72;;;28.80;66.40;;;;;;5055050;28;20036;-75
2022/08/18 05:33:42;;;;;;;32.55;6.05;;;28.90;64.90;;;;;;5062021;28;20086;-75
2022/08/18 05:36:20;;;;;;;28.83;5.70;;;29.00;63.10;;;;;;5057875;28;20096;-78
2022/08/18 05:39:14;;;;;;;27.58;5.35;;;29.20;60.70;;;;;;5053726;28;20021;-74
2022/08/18 05:41:43;;;;;;;34.53;6.90;;;29.40;58.90;;;;;;5055084;28;20120;-73
2022/08/18 05:44:17;;;;;;;21.58;5.15;;;29.50;58.90;;;;;;5055039;28;20029;-76
2022/08/18 05:46:57;;;;;;;32.10;5.82;;;29.60;58.20;;;;;;5054934;28;20037;-76
2022/08/18 05:49:26;;;;;;;23.50;6.13;;;29.70;57.60;;;;;;5054723;28;20009;-75
2022/08/18 05:51:57;;;;;;;31.00;6.38;;;29.80;56.90;;;;;;5055001;28;20028;-75
2022/08/18 05:57:20;;;;;;;30.23;5.10;;;29.90;55.20;;;;;;5054527;28;20082;-76
2022/08/18 05:59:47;;;;;;;24.20;5.05;;;30.10;54.40;;;;;;5054732;28;20029;-75
2022/08/18 06:02:31;;;;;;;33.90;5.85;;;30.20;53.00;;;;;;5055240;28;20347;-76
2022/08/18 06:05:04;;;;;;;29.85;6.10;;;30.40;51.50;;;;;;5054644;28;20028;-76
2022/08/18 06:07:57;;;;;;;30.38;5.68;;;30.60;52.80;;;;;;5054395;28;20055;-73
2022/08/18 06:10:24;;;;;;;36.30;6.00;;;30.70;51.30;;;;;;5053315;28;20051;-75
2022/08/18 06:12:57;;;;;;;27.63;5.72;;;30.90;52.60;;;;;;5052979;28;20082;-76
2022/08/18 06:15:30;;;;;;;22.75;4.90;;;31.00;52.60;;;;;;5054581;28;20071;-75
2022/08/18 06:18:09;;;;;;;30.42;5.82;;;31.00;51.20;;;;;;5052946;28;20051;-75
2022/08/18 06:21:11;;;;;;;31.73;6.38;;;31.20;50.20;;;;;;5054325;28;20060;-75
2022/08/18 06:23:41;;;;;;;28.50;4.88;;;31.30;49.70;;;;;;5054615;28;20025;-76
2022/08/18 06:26:22;;;;;;;32.95;5.20;;;31.50;50.10;;;;;;5054260;28;20056;-76
2022/08/18 06:29:05;;;;;;;29.42;5.25;;;31.70;49.40;;;;;;5054886;28;20017;-75
2022/08/18 06:32:07;;;;;;;23.35;5.45;;;31.90;49.00;;;;;;5053080;28;20448;-75
2022/08/18 06:35:10;;;;;;;26.42;5.45;;;32.00;47.10;;;;;;5054632;28;20025;-73
2022/08/18 06:40:32;;;;;;;23.20;4.38;;;32.20;45.00;;;;;;5054313;28;20524;-74
2022/08/18 06:42:59;;;;;;;35.17;6.53;;;32.30;43.30;;;;;;5053847;28;20021;-74
2022/08/18 06:45:36;;;;;;;40.83;6.65;;;32.50;42.00;;;;;;5052259;28;20107;-77
2022/08/18 06:48:07;;;;;;;38.58;6.28;;;32.70;41.50;;;;;;5052176;28;20025;-75
2022/08/18 06:51:00;;;;;;;26.95;6.07;;;32.90;40.70;;;;;;5052161;28;20153;-73
2022/08/18 06:53:59;;;;;;;29.75;6.55;;;33.10;39.60;;;;;;5053072;28;20040;-76
2022/08/18 06:56:33;;;;;;;31.90;6.30;;;33.30;40.00;;;;;;5053461;28;20037;-76
2022/08/18 06:59:21;;;;;;;31.00;6.20;;;33.50;38.80;;;;;;5053424;28;20041;-76
2022/08/18 07:01:50;;;;;;;31.83;5.90;;;33.70;39.60;;;;;;5053233;28;20120;-72
2022/08/18 07:04:40;;;;;;;38.72;6.05;;;33.90;38.00;;;;;;5053127;28;20021;-74
2022/08/18 07:07:35;;;;;;;30.73;5.82;;;34.00;37.80;;;;;;5053395;28;20047;-77
2022/08/18 07:10:02;;;;;;;41.47;5.85;;;34.20;37.10;;;;;;5053255;28;20025;-76
2022/08/18 07:12:29;;;;;;;36.95;5.82;;;34.30;36.80;;;;;;5053356;28;20025;-75
2022/08/18 07:15:02;;;;;;;28.40;5.95;;;34.40;36.20;;;;;;5053465;28;20203;-75
2022/08/18 07:17:29;;;;;;;;;;;34.50;36.30;;;;;;5053764;28;20075;-74
2022/08/18 07:20:02;;;;;;;30.02;4.72;;;34.60;34.40;;;;;;5053004;28;19904;-75
2022/08/18 07:22:28;;;;;;;33.20;6.50;;;34.70;36.50;;;;;;5053169;28;20055;-78
2022/08/18 07:24:58;;;;;;;28.83;5.63;;;34.80;35.30;;;;;;5052919;28;20021;-76
2022/08/18 07:27:48;;;;;;;27.40;5.88;;;34.90;35.40;;;;;;5053005;28;20037;-73
2022/08/18 07:30:20;;;;;;;32.03;5.95;;;35.00;34.20;;;;;;5052769;28;20100;-76
2022/08/18 07:32:48;;;;;;;28.42;5.20;;;35.10;34.90;;;;;;5052419;28;20024;-76
2022/08/18 07:35:18;;;;;;;34.63;5.85;;;35.20;34.40;;;;;;5052723;28;20025;-76
2022/08/18 07:38:03;;;;;;;32.13;5.43;;;35.20;33.60;;;;;;5052433;28;20031;-76
2022/08/18 07:40:40;;;;;;;32.15;6.18;;;35.30;34.00;;;;;;5052835;28;20033;-76
2022/08/18 07:43:24;;;;;;;30.10;5.93;;;35.30;33.60;;;;;;5052812;28;20045;-76
2022/08/18 07:45:54;;;;;;;42.60;5.72;;;35.40;33.80;;;;;;5054771;28;20514;-76
2022/08/18 07:48:27;;;;;;;32.58;5.43;;;35.50;33.70;;;;;;5054405;28;20378;-76
2022/08/18 07:51:18;;;;;;;36.55;6.20;;;35.50;33.50;;;;;;5053456;28;20048;-77
2022/08/18 07:53:56;;;;;;;33.67;6.65;;;35.50;33.80;;;;;;5052653;28;20022;-79
2022/08/18 07:56:34;;;;;;;34.95;6.38;;;35.50;33.90;;;;;;5052202;28;20037;-72
2022/08/18 07:59:11;;;;;;;41.50;6.20;;;35.60;34.00;;;;;;5052119;28;20021;-77
2022/08/18 08:01:46;;;;;;;36.10;6.35;;;35.60;33.40;;;;;;5052854;28;20033;-78
2022/08/18 08:04:38;;;;;;;24.50;5.38;;;35.60;33.30;;;;;;5052262;28;20457;-74
2022/08/18 08:07:22;;;;;;;33.17;5.67;;;35.70;33.50;;;;;;5052208;28;20040;-77
2022/08/18 08:09:50;;;;;;;;;;;35.70;33.20;;;;;;5052572;28;20174;-77
2022/08/18 08:12:35;;;;;;;26.00;5.97;;;35.80;31.80;;;;;;5052694;28;19905;-74
2022/08/18 08:15:16;;;;;;;35.65;6.07;;;35.80;33.20;;;;;;5052049;28;20029;-76
2022/08/18 08:17:55;;;;;;;31.20;6.47;;;35.90;33.00;;;;;;5052073;28;20462;-77
2022/08/18 08:20:38;;;;;;;30.45;5.97;;;36.00;32.70;;;;;;5051780;28;20055;-76
2022/08/18 08:23:08;;;;;;;26.40;5.07;;;36.00;32.70;;;;;;5052118;28;20029;-77
2022/08/18 08:25:52;;;;;;;33.72;5.70;;;36.10;32.40;;;;;;5051596;28;20044;-74
2022/08/18 08:28:39;;;;;;;33.30;6.05;;;36.10;32.30;;;;;;5052412;28;20399;-77
2022/08/18 08:31:17;;;;;;;39.40;6.25;;;36.20;32.40;;;;;;5052239;28;20036;-74
2022/08/18 08:33:51;;;;;;;30.75;7.15;;;36.20;32.50;;;;;;5052197;28;20152;-74
2022/08/18 08:36:38;;;;;;;40.75;5.85;;;36.20;32.30;;;;;;5052117;28;20377;-76
2022/08/18 08:39:12;;;;;;;30.13;6.30;;;36.20;32.50;;;;;;5052243;28;20098;-76
2022/08/18 08:41:44;;;;;;;30.58;5.80;;;36.30;31.90;;;;;;5052182;28;20033;-74
2022/08/18 08:44:39;;;;;;;39.08;5.70;;;36.30;31.40;;;;;;5053687;28;20103;-74
2022/08/18 08:47:16;;;;;;;27.77;6.35;;;36.40;30.90;;;;;;5055621;28;20044;-77
2022/08/18 08:49:51;;;;;;;30.80;5.80;;;36.30;32.00;;;;;;5055756;28;20496;-73
2022/08/18 08:52:26;;;;;;;41.13;6.35;;;36.20;31.60;;;;;;5054386;28;20422;-74
2022/08/18 08:55:25;;;;;;;39.05;5.97;;;36.10;32.30;;;;;;5055689;28;20375;-75
2022/08/18 08:57:55;;;;;;;31.75;6.15;;;35.90;32.40;;;;;;5054937;28;20051;-75
2022/08/18 09:00:20;;;;;;;33.97;6.03;;;35.80;32.40;;;;;;5055351;28;20107;-77
2022/08/18 09:03:12;;;;;;;26.15;5.53;;;35.80;32.50;;;;;;5055003;28;20097;-82
2022/08/18 09:05:56;;;;;;;29.55;5.65;;;35.70;32.50;;;;;;5029127;28;20045;-78
2022/08/18 09:08:48;;;;;;;37.55;6.82;;;35.60;33.00;;;;;;5055485;28;20431;-85
2022/08/18 09:11:27;;;;;;;28.45;5.75;;;35.50;34.40;;;;;;5055136;28;20121;-75
2022/08/18 09:14:14;;;;;;;239.07;20.23;;;35.40;35.50;;;;;;5054925;28;20028;-72
2022/08/18 09:16:54;;;;;;;52.83;8.00;;;35.20;36.10;;;;;;5055094;28;20478;-72
2022/08/18 09:19:38;;;;;;;99.47;11.65;;;35.10;37.20;;;;;;5055013;28;20378;-72
2022/08/18 09:22:25;;;;;;;33.83;7.05;;;34.90;38.10;;;;;;5055035;28;20056;-72
2022/08/18 09:24:53;;;;;;;27.23;5.80;;;34.90;38.30;;;;;;5054784;28;20504;-73
2022/08/18 09:27:22;;;;;;;34.22;6.07;;;34.90;38.60;;;;;;5054803;28;20450;-72
2022/08/18 09:29:57;;;;;;;27.83;6.00;;;34.90;38.90;;;;;;5055007;28;20322;-73
2022/08/18 09:32:24;;;;;;;31.05;6.05;;;34.80;39.70;;;;;;5054620;28;20031;-73
2022/08/18 09:35:10;;;;;;;37.08;6.75;;;34.80;39.00;;;;;;5054930;28;20041;-71
2022/08/18 09:43:38;;;;;;;33.25;6.40;;;34.60;40.70;;;;;;5054290;28;20355;-74
2022/08/18 09:46:06;;;;;;;33.22;5.88;;;34.50;40.30;;;;;;5054171;28;20033;-71
2022/08/18 09:48:40;;;;;;;35.97;5.72;;;34.50;40.10;;;;;;5054597;28;20032;-69
2022/08/18 09:51:15;;;;;;;30.88;6.35;;;34.50;41.20;;;;;;5054408;28;20047;-71
2022/08/18 09:54:05;;;;;;;36.10;6.40;;;34.50;41.10;;;;;;5054787;28;20450;-70
2022/08/18 09:56:49;;;;;;;28.70;6.28;;;34.50;40.20;;;;;;5051673;28;20064;-71
2022/08/18 09:59:33;;;;;;;29.65;5.90;;;34.50;40.60;;;;;;5053976;28;20037;-70
2022/08/18 10:02:11;;;;;;;37.88;6.38;;;34.60;41.10;;;;;;5053901;28;20043;-70
2022/08/18 10:04:49;;;;;;;29.75;6.25;;;34.60;41.90;;;;;;5054087;28;20034;-70
2022/08/18 10:07:29;;;;;;;29.80;6.05;;;34.60;41.90;;;;;;5054031;28;20463;-70
2022/08/18 10:10:14;;;;;;;42.97;7.18;;;34.80;42.10;;;;;;5054050;28;20017;-69
2022/08/18 10:13:04;;;;;;;25.90;5.68;;;34.80;42.00;;;;;;5054277;28;20028;-70
2022/08/18 10:15:39;;;;;;;28.27;5.63;;;34.90;41.00;;;;;;5052663;28;20025;-71
2022/08/18 10:18:27;;;;;;;28.95;6.05;;;35.10;41.70;;;;;;5052644;28;20025;-70
2022/08/18 10:21:09;;;;;;;24.80;6.00;;;35.20;41.60;;;;;;5054125;28;20031;-70
2022/08/18 10:23:53;;;;;;;28.38;5.72;;;35.20;41.50;;;;;;5054089;28;20151;-72
2022/08/18 10:26:31;;;;;;;30.13;5.78;;;35.30;41.50;;;;;;5053725;28;20434;-70
2022/08/18 10:28:57;;;;;;;24.23;5.63;;;35.30;40.60;;;;;;5053857;28;20125;-70
2022/08/18 10:31:23;;;;;;;29.15;5.72;;;35.30;40.70;;;;;;5054302;28;20481;-69
2022/08/18 10:34:04;;;;;;;32.90;6.25;;;35.20;40.60;;;;;;5053934;28;20055;-70
2022/08/18 10:36:57;;;;;;;28.95;5.55;;;35.30;41.90;;;;;;5053865;28;20028;-69
2022/08/18 10:39:48;;;;;;;34.35;6.35;;;35.30;42.30;;;;;;5053897;28;20066;-70
2022/08/18 10:42:26;;;;;;;29.23;6.13;;;35.30;42.80;;;;;;5054002;28;20060;-72
2022/08/18 10:45:09;;;;;;;24.65;5.72;;;35.30;43.00;;;;;;5053231;28;20033;-71
2022/08/18 10:47:35;;;;;;;28.63;5.68;;;35.30;43.00;;;;;;5053498;28;20108;-70
2022/08/18 10:50:07;;;;;;;28.73;5.70;;;35.20;42.30;;;;;;5053468;28;20021;-70
2022/08/18 10:52:38;;;;;;;36.25;6.22;;;35.20;42.90;;;;;;5053277;28;20025;-70
2022/08/18 10:55:29;;;;;;;38.20;6.80;;;35.20;43.20;;;;;;5051977;28;20037;-70
2022/08/18 10:58:24;;;;;;;27.40;6.20;;;35.20;43.60;;;;;;5053395;28;20049;-70
2022/08/18 11:01:35;;;;;;;25.90;6.13;;;35.20;43.90;;;;;;5053521;28;20024;-70
2022/08/18 11:04:09;;;;;;;39.22;6.20;;;35.20;43.70;;;;;;5025063;28;20033;-70
2022/08/18 11:06:41;;;;;;;35.70;6.10;;;35.20;43.90;;;;;;5053270;28;20048;-70
2022/08/18 11:09:08;;;;;;;26.73;6.47;;;35.30;43.40;;;;;;5053480;28;20067;-70
2022/08/18 11:11:42;;;;;;;30.98;6.03;;;35.30;43.80;;;;;;5053186;28;20465;-68
2022/08/18 11:14:30;;;;;;;26.40;5.40;;;35.30;44.70;;;;;;5052899;28;20461;-70
2022/08/18 11:17:02;;;;;;;26.25;5.65;;;35.30;44.60;;;;;;5053162;28;20158;-69
2022/08/18 11:19:38;;;;;;;29.77;5.28;;;35.40;44.50;;;;;;5053152;28;20025;-70
2022/08/18 11:22:04;;;;;;;31.33;6.45;;;35.30;44.60;;;;;;5053135;28;20068;-70
2022/08/18 11:24:34;;;;;;;32.92;5.95;;;35.20;45.00;;;;;;5052650;28;20025;-70
2022/08/18 11:27:15;;;;;;;30.80;5.68;;;35.10;45.20;;;;;;5052686;28;20077;-69
2022/08/18 11:29:42;;;;;;;26.98;6.00;;;35.00;45.20;;;;;;5052875;28;20071;-69
2022/08/18 11:32:20;;;;;;;26.70;5.93;;;34.90;45.50;;;;;;5052751;28;20041;-68
2022/08/18 11:34:58;;;;;;;28.83;5.10;;;34.90;45.80;;;;;;5052717;28;20048;-69
2022/08/18 11:37:42;;;;;;;33.13;6.05;;;34.90;46.30;;;;;;5052654;28;20100;-70
2022/08/18 11:40:25;;;;;;;31.58;6.47;;;34.80;46.70;;;;;;5052428;28;20040;-69
2022/08/18 11:43:02;;;;;;;24.45;5.68;;;34.80;47.00;;;;;;5052720;28;20029;-69
2022/08/18 11:45:44;;;;;;;25.83;5.55;;;34.70;47.20;;;;;;5052317;28;20107;-69
2022/08/18 11:48:44;;;;;;;26.13;6.07;;;34.70;47.90;;;;;;5052624;28;20394;-70
2022/08/18 11:51:27;;;;;;;33.10;6.43;;;34.70;48.00;;;;;;5052624;28;20031;-69
2022/08/18 11:54:11;;;;;;;28.88;5.72;;;34.60;49.30;;;;;;5052443;28;20098;-70
2022/08/18 11:56:37;;;;;;;29.20;6.45;;;34.70;49.70;;;;;;5052082;28;20053;-69
2022/08/18 11:59:06;;;;;;;32.63;6.82;;;34.70;49.80;;;;;;5052369;28;20025;-72
2022/08/18 12:01:39;;;;;;;31.27;6.00;;;34.70;49.90;;;;;;5052396;28;20032;-70
2022/08/18 12:04:34;;;;;;;28.17;6.47;;;34.70;49.40;;;;;;5052523;28;20025;-70
2022/08/18 12:07:15;;;;;;;27.85;5.88;;;34.60;49.60;;;;;;5052108;28;20486;-69
2022/08/18 12:09:44;;;;;;;28.85;6.65;;;34.50;51.10;;;;;;5052455;28;20032;-71
2022/08/18 12:12:21;;;;;;;29.60;7.05;;;34.40;51.70;;;;;;5052341;28;20040;-70
2022/08/18 12:15:12;;;;;;;24.55;6.15;;;34.30;51.40;;;;;;5052188;28;20025;-70
2022/08/18 12:17:40;;;;;;;29.60;7.10;;;34.10;52.00;;;;;;5052070;28;20041;-70
2022/08/18 12:20:08;;;;;;;25.88;5.80;;;34.00;53.40;;;;;;5050586;28;20387;-72
2022/08/18 12:22:35;;;;;;;30.75;6.75;;;33.90;53.30;;;;;;5052310;28;20096;-73
2022/08/18 12:25:04;;;;;;;32.13;7.05;;;33.90;53.80;;;;;;5051723;28;20029;-69
2022/08/18 12:27:32;;;;;;;23.23;5.78;;;33.80;54.40;;;;;;5052202;28;20033;-70
2022/08/18 12:30:02;;;;;;;25.45;6.40;;;33.70;54.40;;;;;;5052090;28;20044;-69
2022/08/18 12:32:30;;;;;;;27.63;7.03;;;33.70;54.90;;;;;;5051731;28;20444;-70
2022/08/18 12:34:55;;;;;;;38.45;6.90;;;33.60;55.30;;;;;;5051756;28;20075;-70
2022/08/18 12:37:24;;;;;;;30.10;6.80;;;33.60;55.60;;;;;;5051997;28;20029;-74
2022/08/18 12:39:50;;;;;;;29.35;6.93;;;33.60;56.00;;;;;;5052135;28;20021;-70
2022/08/18 12:42:17;;;;;;;35.58;6.82;;;33.50;56.50;;;;;;5051918;28;20078;-70
2022/08/18 12:44:42;;;;;;;26.88;6.50;;;33.50;56.70;;;;;;5050604;28;20032;-70
2022/08/18 12:47:15;;;;;;;27.13;6.57;;;33.50;57.10;;;;;;5051791;28;20036;-69
2022/08/18 12:49:41;;;;;;;42.67;7.57;;;33.50;57.40;;;;;;5051753;28;20102;-70
2022/08/18 12:52:07;;;;;;;29.90;6.53;;;33.50;57.50;;;;;;5052106;28;20029;-70
2022/08/18 12:54:34;;;;;;;33.05;7.28;;;33.60;57.90;;;;;;5052022;28;20017;-71
2022/08/18 12:57:02;;;;;;;23.42;6.68;;;33.70;57.50;;;;;;5051996;28;20108;-70
2022/08/18 12:59:28;;;;;;;22.98;6.30;;;33.90;57.60;;;;;;5051924;28;20029;-70
2022/08/18 13:01:54;;;;;;;36.55;7.35;;;33.90;57.50;;;;;;5051878;28;20453;-69
2022/08/18 13:04:20;;;;;;;28.92;6.38;;;33.90;57.20;;;;;;5051525;28;20025;-69
2022/08/18 13:06:54;;;;;;;31.65;6.50;;;34.00;57.30;;;;;;5051473;28;21316;-69
2022/08/18 13:09:20;;;;;;;33.85;7.22;;;33.90;56.40;;;;;;5051401;28;20028;-69
2022/08/18 13:11:46;;;;;;;30.70;6.90;;;33.80;57.40;;;;;;5051572;28;20056;-70
2022/08/18 13:14:14;;;;;;;30.00;6.65;;;33.70;57.30;;;;;;5051621;28;20116;-72
2022/08/18 13:16:44;;;;;;;23.50;6.47;;;33.60;57.60;;;;;;5051546;28;20035;-69
2022/08/18 13:19:11;;;;;;;26.17;6.03;;;33.50;57.70;;;;;;5051564;28;20033;-73
2022/08/18 13:21:37;;;;;;;41.22;6.88;;;33.40;57.70;;;;;;5051811;28;20032;-70
2022/08/18 13:24:03;;;;;;;29.58;5.78;;;33.30;57.40;;;;;;5051548;28;20096;-71
2022/08/18 13:26:33;;;;;;;31.63;6.45;;;33.30;57.50;;;;;;5051667;28;20033;-69